sensor_id;sensor_type;location;lat;lon;timestamp;P1;durP1;ratioP1;P2;durP2;ratioP2
73850;SDS011;62190;51.548;5.688;2024-03-23T00:54:29;8.98;;;2.35;;
73850;SDS011;62190;51.548;5.688;2024-03-23T00:56:56;9.30;;;3.22;;
73850;SDS011;62190;51.548;5.688;2024-03-23T00:59:23;8.68;;;2.02;;
73850;SDS011;62190;51.548;5.688;2024-03-23T01:01:52;7.92;;;2.70;;
73850;SDS011;62190;51.548;5.688;2024-03-23T01:04:20;4.97;;;2.40;;
73850;SDS011;62190;51.548;5.688;2024-03-23T01:06:47;9.15;;;4.47;;
73850;SDS011;62190;51.548;5.688;2024-03-23T01:09:15;9.53;;;3.65;;
73850;SDS011;62190;51.548;5.688;2024-03-23T01:11:42;12.23;;;2.52;;
73850;SDS011;62190;51.548;5.688;2024-03-23T01:14:09;8.10;;;2.60;;
73850;SDS011;62190;51.548;5.688;2024-03-23T01:16:38;6.62;;;2.27;;
73850;SDS011;62190;51.548;5.688;2024-03-23T01:19:06;10.40;;;3.00;;
73850;SDS011;62190;51.548;5.688;2024-03-23T01:21:34;9.48;;;2.27;;
73850;SDS011;62190;51.548;5.688;2024-03-23T01:24:01;7.00;;;3.58;;
73850;SDS011;62190;51.548;5.688;2024-03-23T01:26:30;7.92;;;2.42;;
73850;SDS011;62190;51.548;5.688;2024-03-23T01:28:57;4.90;;;2.05;;
73850;SDS011;62190;51.548;5.688;2024-03-23T01:31:24;8.75;;;3.85;;
73850;SDS011;62190;51.548;5.688;2024-03-23T01:33:52;6.90;;;2.55;;
73850;SDS011;62190;51.548;5.688;2024-03-23T01:36:19;10.72;;;1.90;;
73850;SDS011;62190;51.548;5.688;2024-03-23T01:38:46;8.15;;;2.47;;
73850;SDS011;62190;51.548;5.688;2024-03-23T01:41:14;10.32;;;3.55;;
73850;SDS011;62190;51.548;5.688;2024-03-23T01:43:42;8.28;;;2.27;;
73850;SDS011;62190;51.548;5.688;2024-03-23T01:46:10;9.58;;;3.15;;
73850;SDS011;62190;51.548;5.688;2024-03-23T01:48:38;6.80;;;3.65;;
73850;SDS011;62190;51.548;5.688;2024-03-23T01:51:05;11.05;;;3.83;;
73850;SDS011;62190;51.548;5.688;2024-03-23T01:53:33;23.80;;;2.98;;
73850;SDS011;62190;51.548;5.688;2024-03-23T01:56:00;8.88;;;3.10;;
73850;SDS011;62190;51.548;5.688;2024-03-23T01:58:29;9.63;;;3.15;;
73850;SDS011;62190;51.548;5.688;2024-03-23T02:00:58;13.40;;;3.45;;
73850;SDS011;62190;51.548;5.688;2024-03-23T02:03:25;16.57;;;3.25;;
73850;SDS011;62190;51.548;5.688;2024-03-23T02:05:57;10.30;;;2.72;;
73850;SDS011;62190;51.548;5.688;2024-03-23T02:08:24;9.70;;;3.98;;
73850;SDS011;62190;51.548;5.688;2024-03-23T02:10:52;7.35;;;2.58;;
73850;SDS011;62190;51.548;5.688;2024-03-23T02:13:19;10.98;;;3.27;;
73850;SDS011;62190;51.548;5.688;2024-03-23T02:15:46;11.65;;;3.15;;
73850;SDS011;62190;51.548;5.688;2024-03-23T02:18:14;8.50;;;2.45;;
73850;SDS011;62190;51.548;5.688;2024-03-23T02:20:41;9.35;;;2.27;;
73850;SDS011;62190;51.548;5.688;2024-03-23T02:23:16;7.25;;;3.15;;
73850;SDS011;62190;51.548;5.688;2024-03-23T02:25:46;15.90;;;2.72;;
73850;SDS011;62190;51.548;5.688;2024-03-23T02:28:14;10.08;;;2.33;;
73850;SDS011;62190;51.548;5.688;2024-03-23T02:30:42;10.93;;;3.40;;
73850;SDS011;62190;51.548;5.688;2024-03-23T02:33:10;5.67;;;2.22;;
73850;SDS011;62190;51.548;5.688;2024-03-23T02:35:37;9.73;;;2.42;;
73850;SDS011;62190;51.548;5.688;2024-03-23T02:38:06;9.93;;;2.52;;
73850;SDS011;62190;51.548;5.688;2024-03-23T02:40:33;10.25;;;2.20;;
73850;SDS011;62190;51.548;5.688;2024-03-23T02:43:02;3.87;;;1.42;;
73850;SDS011;62190;51.548;5.688;2024-03-23T02:45:31;7.17;;;2.40;;
73850;SDS011;62190;51.548;5.688;2024-03-23T02:47:59;9.78;;;2.40;;
73850;SDS011;62190;51.548;5.688;2024-03-23T02:50:26;10.30;;;2.58;;
73850;SDS011;62190;51.548;5.688;2024-03-23T02:52:53;12.00;;;3.33;;
73850;SDS011;62190;51.548;5.688;2024-03-23T02:55:21;7.65;;;2.75;;
73850;SDS011;62190;51.548;5.688;2024-03-23T02:57:48;6.65;;;2.98;;
73850;SDS011;62190;51.548;5.688;2024-03-23T03:00:15;8.30;;;2.60;;
73850;SDS011;62190;51.548;5.688;2024-03-23T03:02:46;13.60;;;3.72;;
73850;SDS011;62190;51.548;5.688;2024-03-23T03:05:13;10.08;;;2.62;;
73850;SDS011;62190;51.548;5.688;2024-03-23T03:07:43;15.23;;;3.42;;
73850;SDS011;62190;51.548;5.688;2024-03-23T03:10:13;10.63;;;3.98;;
73850;SDS011;62190;51.548;5.688;2024-03-23T03:12:39;8.85;;;3.52;;
73850;SDS011;62190;51.548;5.688;2024-03-23T03:15:07;10.80;;;3.35;;
73850;SDS011;62190;51.548;5.688;2024-03-23T03:17:35;11.08;;;4.17;;
73850;SDS011;62190;51.548;5.688;2024-03-23T03:20:02;11.10;;;3.58;;
73850;SDS011;62190;51.548;5.688;2024-03-23T03:22:30;13.43;;;3.70;;
73850;SDS011;62190;51.548;5.688;2024-03-23T03:24:57;11.00;;;4.45;;
73850;SDS011;62190;51.548;5.688;2024-03-23T03:27:25;12.10;;;2.92;;
73850;SDS011;62190;51.548;5.688;2024-03-23T03:29:53;11.33;;;4.47;;
73850;SDS011;62190;51.548;5.688;2024-03-23T03:32:20;6.33;;;3.30;;
73850;SDS011;62190;51.548;5.688;2024-03-23T03:34:47;9.45;;;2.67;;
73850;SDS011;62190;51.548;5.688;2024-03-23T03:37:15;10.60;;;2.98;;
73850;SDS011;62190;51.548;5.688;2024-03-23T03:39:42;7.70;;;3.20;;
73850;SDS011;62190;51.548;5.688;2024-03-23T03:42:11;12.37;;;3.08;;
73850;SDS011;62190;51.548;5.688;2024-03-23T03:44:40;9.43;;;3.22;;
73850;SDS011;62190;51.548;5.688;2024-03-23T03:47:08;8.05;;;2.52;;
73850;SDS011;62190;51.548;5.688;2024-03-23T03:49:40;7.53;;;3.15;;
73850;SDS011;62190;51.548;5.688;2024-03-23T03:52:04;9.58;;;2.62;;
73850;SDS011;62190;51.548;5.688;2024-03-23T03:54:33;15.65;;;3.65;;
73850;SDS011;62190;51.548;5.688;2024-03-23T03:57:03;7.17;;;3.20;;
73850;SDS011;62190;51.548;5.688;2024-03-23T03:59:30;5.78;;;2.45;;
73850;SDS011;62190;51.548;5.688;2024-03-23T04:02:01;6.87;;;3.08;;
73850;SDS011;62190;51.548;5.688;2024-03-23T04:04:33;11.18;;;2.17;;
73850;SDS011;62190;51.548;5.688;2024-03-23T04:07:02;4.53;;;2.12;;
73850;SDS011;62190;51.548;5.688;2024-03-23T04:09:31;8.35;;;2.08;;
73850;SDS011;62190;51.548;5.688;2024-03-23T04:12:01;8.10;;;1.98;;
73850;SDS011;62190;51.548;5.688;2024-03-23T04:14:30;11.25;;;2.27;;
73850;SDS011;62190;51.548;5.688;2024-03-23T04:16:57;9.53;;;1.92;;
73850;SDS011;62190;51.548;5.688;2024-03-23T04:19:26;7.30;;;2.33;;
73850;SDS011;62190;51.548;5.688;2024-03-23T04:21:54;9.23;;;2.25;;
73850;SDS011;62190;51.548;5.688;2024-03-23T04:24:21;6.42;;;1.87;;
73850;SDS011;62190;51.548;5.688;2024-03-23T04:26:54;7.67;;;1.67;;
73850;SDS011;62190;51.548;5.688;2024-03-23T04:29:35;7.47;;;1.92;;
73850;SDS011;62190;51.548;5.688;2024-03-23T04:31:56;6.60;;;1.85;;
73850;SDS011;62190;51.548;5.688;2024-03-23T04:34:26;8.98;;;2.33;;
73850;SDS011;62190;51.548;5.688;2024-03-23T04:36:53;11.25;;;2.80;;
73850;SDS011;62190;51.548;5.688;2024-03-23T04:39:20;6.12;;;2.08;;
73850;SDS011;62190;51.548;5.688;2024-03-23T04:41:47;7.35;;;2.92;;
73850;SDS011;62190;51.548;5.688;2024-03-23T04:44:16;7.37;;;2.27;;
73850;SDS011;62190;51.548;5.688;2024-03-23T04:46:44;5.92;;;1.92;;
73850;SDS011;62190;51.548;5.688;2024-03-23T04:49:13;5.90;;;2.10;;
73850;SDS011;62190;51.548;5.688;2024-03-23T04:51:40;8.85;;;1.87;;
73850;SDS011;62190;51.548;5.688;2024-03-23T04:54:09;3.83;;;1.27;;
73850;SDS011;62190;51.548;5.688;2024-03-23T04:56:36;5.90;;;1.82;;
73850;SDS011;62190;51.548;5.688;2024-03-23T04:59:05;6.90;;;2.45;;
73850;SDS011;62190;51.548;5.688;2024-03-23T05:01:34;8.18;;;2.00;;
73850;SDS011;62190;51.548;5.688;2024-03-23T05:04:08;11.03;;;2.00;;
73850;SDS011;62190;51.548;5.688;2024-03-23T05:06:32;13.10;;;2.02;;
73850;SDS011;62190;51.548;5.688;2024-03-23T05:09:01;13.78;;;1.72;;
73850;SDS011;62190;51.548;5.688;2024-03-23T05:11:30;6.87;;;1.55;;
73850;SDS011;62190;51.548;5.688;2024-03-23T05:13:57;14.00;;;2.75;;
73850;SDS011;62190;51.548;5.688;2024-03-23T05:16:27;5.62;;;2.40;;
73850;SDS011;62190;51.548;5.688;2024-03-23T05:18:54;6.65;;;2.15;;
73850;SDS011;62190;51.548;5.688;2024-03-23T05:21:23;13.68;;;2.67;;
73850;SDS011;62190;51.548;5.688;2024-03-23T05:23:50;7.50;;;2.05;;
73850;SDS011;62190;51.548;5.688;2024-03-23T05:26:17;14.75;;;2.50;;
73850;SDS011;62190;51.548;5.688;2024-03-23T05:28:45;13.50;;;2.37;;
73850;SDS011;62190;51.548;5.688;2024-03-23T05:31:22;7.92;;;2.45;;
73850;SDS011;62190;51.548;5.688;2024-03-23T05:33:54;8.85;;;3.25;;
73850;SDS011;62190;51.548;5.688;2024-03-23T05:36:22;11.12;;;3.50;;
73850;SDS011;62190;51.548;5.688;2024-03-23T05:38:50;9.15;;;3.67;;
73850;SDS011;62190;51.548;5.688;2024-03-23T05:41:36;6.92;;;2.92;;
73850;SDS011;62190;51.548;5.688;2024-03-23T05:44:08;14.25;;;4.03;;
73850;SDS011;62190;51.548;5.688;2024-03-23T05:46:44;12.05;;;3.52;;
73850;SDS011;62190;51.548;5.688;2024-03-23T05:49:15;10.72;;;3.70;;
73850;SDS011;62190;51.548;5.688;2024-03-23T05:51:43;9.28;;;3.52;;
73850;SDS011;62190;51.548;5.688;2024-03-23T05:54:10;14.20;;;4.20;;
73850;SDS011;62190;51.548;5.688;2024-03-23T05:56:40;11.30;;;4.35;;
73850;SDS011;62190;51.548;5.688;2024-03-23T05:59:09;10.25;;;4.75;;
73850;SDS011;62190;51.548;5.688;2024-03-23T06:01:40;10.23;;;3.80;;
73850;SDS011;62190;51.548;5.688;2024-03-23T06:04:07;10.75;;;3.83;;
73850;SDS011;62190;51.548;5.688;2024-03-23T06:06:35;13.00;;;4.55;;
73850;SDS011;62190;51.548;5.688;2024-03-23T06:09:02;16.82;;;5.25;;
73850;SDS011;62190;51.548;5.688;2024-03-23T06:11:29;12.98;;;5.65;;
73850;SDS011;62190;51.548;5.688;2024-03-23T06:13:57;15.78;;;5.95;;
73850;SDS011;62190;51.548;5.688;2024-03-23T06:16:26;15.78;;;6.22;;
73850;SDS011;62190;51.548;5.688;2024-03-23T06:18:53;14.78;;;5.00;;
73850;SDS011;62190;51.548;5.688;2024-03-23T06:24:02;13.45;;;5.30;;
73850;SDS011;62190;51.548;5.688;2024-03-23T06:26:32;17.10;;;5.15;;
73850;SDS011;62190;51.548;5.688;2024-03-23T06:29:00;10.38;;;5.40;;
73850;SDS011;62190;51.548;5.688;2024-03-23T06:31:27;11.00;;;3.65;;
73850;SDS011;62190;51.548;5.688;2024-03-23T06:34:04;26.25;;;6.90;;
73850;SDS011;62190;51.548;5.688;2024-03-23T06:36:28;16.07;;;4.50;;
73850;SDS011;62190;51.548;5.688;2024-03-23T06:38:56;9.63;;;4.15;;
73850;SDS011;62190;51.548;5.688;2024-03-23T06:41:27;14.13;;;4.78;;
73850;SDS011;62190;51.548;5.688;2024-03-23T06:43:59;10.80;;;3.87;;
73850;SDS011;62190;51.548;5.688;2024-03-23T06:46:28;11.55;;;4.08;;
73850;SDS011;62190;51.548;5.688;2024-03-23T06:48:57;10.58;;;4.15;;
73850;SDS011;62190;51.548;5.688;2024-03-23T06:51:25;14.13;;;4.60;;
73850;SDS011;62190;51.548;5.688;2024-03-23T06:54:09;9.73;;;3.27;;
73850;SDS011;62190;51.548;5.688;2024-03-23T06:56:27;9.88;;;3.55;;
73850;SDS011;62190;51.548;5.688;2024-03-23T06:58:58;12.20;;;3.15;;
73850;SDS011;62190;51.548;5.688;2024-03-23T07:01:28;9.48;;;2.65;;
73850;SDS011;62190;51.548;5.688;2024-03-23T07:03:57;13.75;;;3.45;;
73850;SDS011;62190;51.548;5.688;2024-03-23T07:06:24;8.85;;;3.22;;
73850;SDS011;62190;51.548;5.688;2024-03-23T07:08:57;7.83;;;2.20;;
73850;SDS011;62190;51.548;5.688;2024-03-23T07:11:23;7.33;;;2.22;;
73850;SDS011;62190;51.548;5.688;2024-03-23T07:16:24;7.92;;;1.70;;
73850;SDS011;62190;51.548;5.688;2024-03-23T07:18:55;7.83;;;2.42;;
73850;SDS011;62190;51.548;5.688;2024-03-23T07:21:32;7.55;;;1.72;;
73850;SDS011;62190;51.548;5.688;2024-03-23T07:23:54;6.55;;;2.00;;
73850;SDS011;62190;51.548;5.688;2024-03-23T07:26:22;5.97;;;1.07;;
73850;SDS011;62190;51.548;5.688;2024-03-23T07:28:49;9.03;;;1.57;;
73850;SDS011;62190;51.548;5.688;2024-03-23T07:31:18;2.47;;;0.80;;
73850;SDS011;62190;51.548;5.688;2024-03-23T07:33:48;2.70;;;0.90;;
73850;SDS011;62190;51.548;5.688;2024-03-23T07:36:15;6.33;;;1.10;;
73850;SDS011;62190;51.548;5.688;2024-03-23T07:38:44;7.22;;;1.42;;
73850;SDS011;62190;51.548;5.688;2024-03-23T07:41:15;4.15;;;1.30;;
73850;SDS011;62190;51.548;5.688;2024-03-23T07:43:46;8.45;;;1.65;;
73850;SDS011;62190;51.548;5.688;2024-03-23T07:46:15;9.08;;;1.98;;
73850;SDS011;62190;51.548;5.688;2024-03-23T07:48:45;7.50;;;1.20;;
73850;SDS011;62190;51.548;5.688;2024-03-23T07:51:19;8.33;;;1.55;;
73850;SDS011;62190;51.548;5.688;2024-03-23T07:53:49;11.18;;;2.15;;
73850;SDS011;62190;51.548;5.688;2024-03-23T07:58:45;5.42;;;1.60;;
73850;SDS011;62190;51.548;5.688;2024-03-23T08:01:14;4.00;;;1.52;;
73850;SDS011;62190;51.548;5.688;2024-03-23T08:03:43;8.70;;;1.72;;
73850;SDS011;62190;51.548;5.688;2024-03-23T08:06:15;5.53;;;1.65;;
73850;SDS011;62190;51.548;5.688;2024-03-23T08:08:46;4.25;;;1.32;;
73850;SDS011;62190;51.548;5.688;2024-03-23T08:11:17;7.10;;;1.72;;
73850;SDS011;62190;51.548;5.688;2024-03-23T08:13:44;7.70;;;1.95;;
73850;SDS011;62190;51.548;5.688;2024-03-23T08:16:12;6.03;;;1.45;;
73850;SDS011;62190;51.548;5.688;2024-03-23T08:18:39;11.50;;;3.70;;
73850;SDS011;62190;51.548;5.688;2024-03-23T08:21:07;5.87;;;1.72;;
73850;SDS011;62190;51.548;5.688;2024-03-23T08:23:40;5.87;;;2.20;;
73850;SDS011;62190;51.548;5.688;2024-03-23T08:26:16;8.85;;;2.27;;
73850;SDS011;62190;51.548;5.688;2024-03-23T08:28:39;5.90;;;1.17;;
73850;SDS011;62190;51.548;5.688;2024-03-23T08:31:16;5.25;;;1.40;;
73850;SDS011;62190;51.548;5.688;2024-03-23T08:33:38;7.30;;;3.22;;
73850;SDS011;62190;51.548;5.688;2024-03-23T08:36:08;5.78;;;1.27;;
73850;SDS011;62190;51.548;5.688;2024-03-23T08:38:38;11.00;;;1.40;;
73850;SDS011;62190;51.548;5.688;2024-03-23T08:41:09;3.65;;;1.50;;
73850;SDS011;62190;51.548;5.688;2024-03-23T08:43:39;6.33;;;1.60;;
73850;SDS011;62190;51.548;5.688;2024-03-23T08:46:12;5.08;;;1.87;;
73850;SDS011;62190;51.548;5.688;2024-03-23T08:48:49;5.65;;;1.65;;
73850;SDS011;62190;51.548;5.688;2024-03-23T08:51:15;6.00;;;1.67;;
73850;SDS011;62190;51.548;5.688;2024-03-23T08:53:43;11.03;;;1.15;;
73850;SDS011;62190;51.548;5.688;2024-03-23T08:56:11;10.08;;;2.87;;
73850;SDS011;62190;51.548;5.688;2024-03-23T08:58:40;5.33;;;0.75;;
73850;SDS011;62190;51.548;5.688;2024-03-23T09:01:18;18.98;;;1.85;;
73850;SDS011;62190;51.548;5.688;2024-03-23T09:03:42;5.67;;;1.10;;
73850;SDS011;62190;51.548;5.688;2024-03-23T09:06:12;4.25;;;0.65;;
73850;SDS011;62190;51.548;5.688;2024-03-23T09:08:39;11.97;;;1.57;;
73850;SDS011;62190;51.548;5.688;2024-03-23T09:11:08;9.25;;;1.92;;
73850;SDS011;62190;51.548;5.688;2024-03-23T09:13:41;8.93;;;1.57;;
73850;SDS011;62190;51.548;5.688;2024-03-23T09:16:09;4.75;;;0.70;;
73850;SDS011;62190;51.548;5.688;2024-03-23T09:18:36;3.70;;;0.88;;
73850;SDS011;62190;51.548;5.688;2024-03-23T09:21:11;2.25;;;0.82;;
73850;SDS011;62190;51.548;5.688;2024-03-23T09:23:38;4.42;;;0.50;;
73850;SDS011;62190;51.548;5.688;2024-03-23T09:26:06;0.88;;;0.30;;
73850;SDS011;62190;51.548;5.688;2024-03-23T09:28:35;2.98;;;0.45;;
73850;SDS011;62190;51.548;5.688;2024-03-23T09:31:05;2.92;;;1.07;;
73850;SDS011;62190;51.548;5.688;2024-03-23T09:33:33;3.17;;;0.40;;
73850;SDS011;62190;51.548;5.688;2024-03-23T09:36:04;3.83;;;0.80;;
73850;SDS011;62190;51.548;5.688;2024-03-23T09:38:31;2.62;;;0.47;;
73850;SDS011;62190;51.548;5.688;2024-03-23T09:40:59;3.15;;;0.80;;
73850;SDS011;62190;51.548;5.688;2024-03-23T09:43:31;1.52;;;0.50;;
73850;SDS011;62190;51.548;5.688;2024-03-23T09:45:55;4.72;;;1.17;;
73850;SDS011;62190;51.548;5.688;2024-03-23T09:48:23;3.02;;;0.60;;
73850;SDS011;62190;51.548;5.688;2024-03-23T09:50:50;6.78;;;1.20;;
73850;SDS011;62190;51.548;5.688;2024-03-23T09:53:17;6.40;;;0.60;;
73850;SDS011;62190;51.548;5.688;2024-03-23T09:55:45;3.98;;;0.85;;
73850;SDS011;62190;51.548;5.688;2024-03-23T09:58:13;2.62;;;0.60;;
73850;SDS011;62190;51.548;5.688;2024-03-23T10:00:44;8.00;;;1.25;;
73850;SDS011;62190;51.548;5.688;2024-03-23T10:03:11;4.80;;;1.72;;
73850;SDS011;62190;51.548;5.688;2024-03-23T10:05:39;2.85;;;0.80;;
73850;SDS011;62190;51.548;5.688;2024-03-23T10:08:18;7.12;;;0.75;;
73850;SDS011;62190;51.548;5.688;2024-03-23T10:10:46;4.60;;;1.07;;
73850;SDS011;62190;51.548;5.688;2024-03-23T10:13:24;2.72;;;1.12;;
73850;SDS011;62190;51.548;5.688;2024-03-23T10:15:55;4.85;;;1.05;;
73850;SDS011;62190;51.548;5.688;2024-03-23T10:18:30;3.60;;;0.85;;
73850;SDS011;62190;51.548;5.688;2024-03-23T10:21:14;7.70;;;1.30;;
73850;SDS011;62190;51.548;5.688;2024-03-23T10:23:53;5.78;;;1.30;;
73850;SDS011;62190;51.548;5.688;2024-03-23T10:26:23;2.22;;;0.82;;
73850;SDS011;62190;51.548;5.688;2024-03-23T10:29:01;3.95;;;1.00;;
73850;SDS011;62190;51.548;5.688;2024-03-23T10:31:42;5.78;;;1.52;;
73850;SDS011;62190;51.548;5.688;2024-03-23T10:34:12;6.35;;;0.78;;
73850;SDS011;62190;51.548;5.688;2024-03-23T10:36:41;2.52;;;0.50;;
73850;SDS011;62190;51.548;5.688;2024-03-23T10:39:09;6.78;;;1.02;;
73850;SDS011;62190;51.548;5.688;2024-03-23T10:41:46;3.47;;;0.88;;
73850;SDS011;62190;51.548;5.688;2024-03-23T10:44:18;5.62;;;1.15;;
73850;SDS011;62190;51.548;5.688;2024-03-23T10:46:57;4.67;;;0.90;;
73850;SDS011;62190;51.548;5.688;2024-03-23T10:49:21;3.30;;;0.55;;
73850;SDS011;62190;51.548;5.688;2024-03-23T10:51:50;8.63;;;0.90;;
73850;SDS011;62190;51.548;5.688;2024-03-23T10:54:18;5.17;;;1.25;;
73850;SDS011;62190;51.548;5.688;2024-03-23T10:56:54;4.28;;;0.70;;
73850;SDS011;62190;51.548;5.688;2024-03-23T10:59:30;5.70;;;2.15;;
73850;SDS011;62190;51.548;5.688;2024-03-23T11:01:58;1.20;;;0.40;;
73850;SDS011;62190;51.548;5.688;2024-03-23T11:04:32;2.25;;;0.60;;
73850;SDS011;62190;51.548;5.688;2024-03-23T11:09:56;4.40;;;0.90;;
73850;SDS011;62190;51.548;5.688;2024-03-23T11:12:30;1.92;;;0.55;;
73850;SDS011;62190;51.548;5.688;2024-03-23T11:15:10;4.17;;;1.25;;
73850;SDS011;62190;51.548;5.688;2024-03-23T11:17:53;4.65;;;0.90;;
73850;SDS011;62190;51.548;5.688;2024-03-23T11:20:33;2.83;;;0.60;;
73850;SDS011;62190;51.548;5.688;2024-03-23T11:23:01;3.77;;;0.90;;
73850;SDS011;62190;51.548;5.688;2024-03-23T11:25:29;3.20;;;1.07;;
73850;SDS011;62190;51.548;5.688;2024-03-23T11:28:12;5.75;;;1.60;;
73850;SDS011;62190;51.548;5.688;2024-03-23T11:30:43;2.02;;;0.78;;
73850;SDS011;62190;51.548;5.688;2024-03-23T11:33:22;1.90;;;0.78;;
73850;SDS011;62190;51.548;5.688;2024-03-23T11:35:43;3.65;;;1.25;;
73850;SDS011;62190;51.548;5.688;2024-03-23T11:40:57;2.75;;;0.70;;
73850;SDS011;62190;51.548;5.688;2024-03-23T11:43:28;2.20;;;0.20;;
73850;SDS011;62190;51.548;5.688;2024-03-23T11:45:56;2.35;;;0.50;;
73850;SDS011;62190;51.548;5.688;2024-03-23T11:48:25;2.77;;;0.62;;
73850;SDS011;62190;51.548;5.688;2024-03-23T11:50:56;3.08;;;0.40;;
73850;SDS011;62190;51.548;5.688;2024-03-23T11:53:27;7.15;;;0.60;;
73850;SDS011;62190;51.548;5.688;2024-03-23T11:55:58;2.45;;;0.30;;
73850;SDS011;62190;51.548;5.688;2024-03-23T11:58:28;7.17;;;0.50;;
73850;SDS011;62190;51.548;5.688;2024-03-23T12:00:56;1.70;;;0.20;;
73850;SDS011;62190;51.548;5.688;2024-03-23T12:03:29;0.60;;;0.20;;
73850;SDS011;62190;51.548;5.688;2024-03-23T12:05:59;1.27;;;0.28;;
73850;SDS011;62190;51.548;5.688;2024-03-23T12:08:32;0.33;;;0.10;;
73850;SDS011;62190;51.548;5.688;2024-03-23T12:11:12;1.00;;;0.10;;
73850;SDS011;62190;51.548;5.688;2024-03-23T12:13:55;2.65;;;0.68;;
73850;SDS011;62190;51.548;5.688;2024-03-23T12:16:21;0.53;;;0.20;;
73850;SDS011;62190;51.548;5.688;2024-03-23T12:18:56;1.98;;;0.23;;
73850;SDS011;62190;51.548;5.688;2024-03-23T12:21:25;2.92;;;0.57;;
73850;SDS011;62190;51.548;5.688;2024-03-23T12:23:53;3.83;;;0.75;;
73850;SDS011;62190;51.548;5.688;2024-03-23T12:26:21;3.60;;;2.15;;
73850;SDS011;62190;51.548;5.688;2024-03-23T12:28:48;0.85;;;0.35;;
73850;SDS011;62190;51.548;5.688;2024-03-23T12:31:16;2.42;;;0.30;;
73850;SDS011;62190;51.548;5.688;2024-03-23T12:33:43;1.80;;;0.70;;
73850;SDS011;62190;51.548;5.688;2024-03-23T12:36:15;4.10;;;1.00;;
73850;SDS011;62190;51.548;5.688;2024-03-23T12:38:43;1.07;;;0.50;;
73850;SDS011;62190;51.548;5.688;2024-03-23T12:41:11;4.95;;;0.57;;
73850;SDS011;62190;51.548;5.688;2024-03-23T12:43:41;14.83;;;0.88;;
73850;SDS011;62190;51.548;5.688;2024-03-23T12:46:08;1.98;;;0.57;;
73850;SDS011;62190;51.548;5.688;2024-03-23T12:48:42;2.50;;;0.95;;
73850;SDS011;62190;51.548;5.688;2024-03-23T12:51:07;4.08;;;0.37;;
73850;SDS011;62190;51.548;5.688;2024-03-23T12:53:36;5.80;;;2.55;;
73850;SDS011;62190;51.548;5.688;2024-03-23T12:56:09;5.33;;;0.72;;
73850;SDS011;62190;51.548;5.688;2024-03-23T12:58:32;3.67;;;0.65;;
73850;SDS011;62190;51.548;5.688;2024-03-23T13:01:00;1.98;;;0.60;;
73850;SDS011;62190;51.548;5.688;2024-03-23T13:03:28;1.65;;;0.30;;
73850;SDS011;62190;51.548;5.688;2024-03-23T13:05:55;1.60;;;0.55;;
73850;SDS011;62190;51.548;5.688;2024-03-23T13:08:27;3.20;;;0.55;;
73850;SDS011;62190;51.548;5.688;2024-03-23T13:10:54;4.80;;;1.00;;
73850;SDS011;62190;51.548;5.688;2024-03-23T13:13:23;2.25;;;0.40;;
73850;SDS011;62190;51.548;5.688;2024-03-23T13:16:02;5.12;;;0.65;;
73850;SDS011;62190;51.548;5.688;2024-03-23T13:18:27;3.77;;;1.67;;
73850;SDS011;62190;51.548;5.688;2024-03-23T13:20:54;5.45;;;1.20;;
73850;SDS011;62190;51.548;5.688;2024-03-23T13:23:25;4.00;;;0.98;;
73850;SDS011;62190;51.548;5.688;2024-03-23T13:26:00;3.80;;;0.85;;
73850;SDS011;62190;51.548;5.688;2024-03-23T13:28:33;4.90;;;1.42;;
73850;SDS011;62190;51.548;5.688;2024-03-23T13:31:01;2.47;;;0.40;;
73850;SDS011;62190;51.548;5.688;2024-03-23T13:36:03;2.12;;;0.60;;
73850;SDS011;62190;51.548;5.688;2024-03-23T13:38:31;2.65;;;0.50;;
73850;SDS011;62190;51.548;5.688;2024-03-23T13:41:01;2.25;;;0.42;;
73850;SDS011;62190;51.548;5.688;2024-03-23T13:43:32;2.10;;;0.60;;
73850;SDS011;62190;51.548;5.688;2024-03-23T13:46:05;5.05;;;0.60;;
73850;SDS011;62190;51.548;5.688;2024-03-23T13:48:34;5.67;;;1.07;;
73850;SDS011;62190;51.548;5.688;2024-03-23T13:51:02;4.40;;;0.70;;
73850;SDS011;62190;51.548;5.688;2024-03-23T13:53:32;13.43;;;1.40;;
73850;SDS011;62190;51.548;5.688;2024-03-23T13:56:03;5.08;;;1.07;;
73850;SDS011;62190;51.548;5.688;2024-03-23T13:58:31;2.45;;;0.30;;
73850;SDS011;62190;51.548;5.688;2024-03-23T14:00:58;3.95;;;1.15;;
73850;SDS011;62190;51.548;5.688;2024-03-23T14:03:26;4.75;;;0.65;;
73850;SDS011;62190;51.548;5.688;2024-03-23T14:05:58;2.47;;;0.42;;
73850;SDS011;62190;51.548;5.688;2024-03-23T14:08:28;4.47;;;1.07;;
73850;SDS011;62190;51.548;5.688;2024-03-23T14:10:57;4.90;;;0.50;;
73850;SDS011;62190;51.548;5.688;2024-03-23T14:13:27;4.53;;;0.60;;
73850;SDS011;62190;51.548;5.688;2024-03-23T14:15:57;5.62;;;0.98;;
73850;SDS011;62190;51.548;5.688;2024-03-23T14:18:30;9.63;;;0.65;;
73850;SDS011;62190;51.548;5.688;2024-03-23T14:21:02;2.92;;;0.50;;
73850;SDS011;62190;51.548;5.688;2024-03-23T14:23:26;2.22;;;0.82;;
73850;SDS011;62190;51.548;5.688;2024-03-23T14:26:00;10.93;;;0.72;;
73850;SDS011;62190;51.548;5.688;2024-03-23T14:28:27;4.37;;;1.00;;
73850;SDS011;62190;51.548;5.688;2024-03-23T14:30:55;6.00;;;0.53;;
73850;SDS011;62190;51.548;5.688;2024-03-23T14:33:25;3.02;;;0.35;;
73850;SDS011;62190;51.548;5.688;2024-03-23T14:35:57;6.70;;;1.25;;
73850;SDS011;62190;51.548;5.688;2024-03-23T14:38:27;1.92;;;0.50;;
73850;SDS011;62190;51.548;5.688;2024-03-23T14:40:59;3.10;;;0.75;;
73850;SDS011;62190;51.548;5.688;2024-03-23T14:43:29;3.85;;;0.98;;
73850;SDS011;62190;51.548;5.688;2024-03-23T14:46:12;3.98;;;1.00;;
73850;SDS011;62190;51.548;5.688;2024-03-23T14:48:42;0.88;;;0.40;;
73850;SDS011;62190;51.548;5.688;2024-03-23T14:51:22;3.42;;;0.70;;
73850;SDS011;62190;51.548;5.688;2024-03-23T14:53:52;1.15;;;0.40;;
73850;SDS011;62190;51.548;5.688;2024-03-23T14:56:19;4.40;;;0.50;;
73850;SDS011;62190;51.548;5.688;2024-03-23T14:58:46;2.25;;;0.42;;
73850;SDS011;62190;51.548;5.688;2024-03-23T15:01:21;1.40;;;0.30;;
73850;SDS011;62190;51.548;5.688;2024-03-23T15:03:51;1.22;;;0.20;;
73850;SDS011;62190;51.548;5.688;2024-03-23T15:06:21;6.37;;;1.07;;
73850;SDS011;62190;51.548;5.688;2024-03-23T15:08:50;1.90;;;1.00;;
73850;SDS011;62190;51.548;5.688;2024-03-23T15:11:23;2.20;;;0.68;;
73850;SDS011;62190;51.548;5.688;2024-03-23T15:13:52;2.08;;;0.37;;
73850;SDS011;62190;51.548;5.688;2024-03-23T15:16:21;3.85;;;0.93;;
73850;SDS011;62190;51.548;5.688;2024-03-23T15:18:57;4.65;;;0.68;;
